createdAt,value
2018-06-15T00:00:09.946Z,0
2018-06-15T00:01:18.594Z,0
2018-06-15T00:02:27.230Z,0
2018-06-15T00:03:35.881Z,0
2018-06-15T00:04:44.785Z,0
2018-06-15T00:05:53.442Z,0
2018-06-15T00:07:02.351Z,0
2018-06-15T00:08:11.001Z,0
2018-06-15T00:09:19.901Z,0
2018-06-15T00:10:28.835Z,0
2018-06-15T00:11:37.473Z,0
2018-06-15T00:12:46.123Z,0
2018-06-15T00:13:54.766Z,0
2018-06-15T00:15:03.423Z,0
2018-06-15T00:16:12.066Z,0
2018-06-15T00:17:20.708Z,0
2018-06-15T00:18:29.354Z,0
2018-06-15T00:19:38.261Z,0
2018-06-15T00:20:46.913Z,0
2018-06-15T00:21:55.561Z,0
2018-06-15T00:23:04.209Z,0
2018-06-15T00:24:12.856Z,0
2018-06-15T00:25:21.507Z,0
2018-06-15T00:26:30.157Z,0
2018-06-15T00:27:39.064Z,0
2018-06-15T00:28:47.706Z,0
2018-06-15T00:29:56.357Z,0
2018-06-15T00:31:05.027Z,0
2018-06-15T00:32:13.650Z,0
2018-06-15T00:33:22.289Z,0
2018-06-15T00:34:30.943Z,0
2018-06-15T00:35:39.854Z,0
2018-06-15T00:36:48.840Z,0
2018-06-15T00:37:57.680Z,0
2018-06-15T00:39:06.321Z,0
2018-06-15T00:40:14.970Z,0
2018-06-15T00:41:23.616Z,0
2018-06-15T00:42:32.267Z,0
2018-06-15T00:43:40.909Z,0
2018-06-15T00:44:49.553Z,0
2018-06-15T00:45:58.201Z,0
2018-06-15T00:47:06.853Z,0
2018-06-15T00:48:15.497Z,0
2018-06-15T00:49:24.408Z,0
2018-06-15T00:50:33.053Z,0
2018-06-15T00:51:41.704Z,0
2018-06-15T00:52:50.349Z,0
2018-06-15T00:53:58.995Z,0
2018-06-15T00:55:07.643Z,0
2018-06-15T00:56:16.559Z,0
2018-06-15T00:57:25.469Z,0
2018-06-15T00:58:34.112Z,0
2018-06-15T00:59:42.765Z,0
2018-06-15T01:00:51.402Z,0
2018-06-15T01:02:00.319Z,0
2018-06-15T01:03:08.966Z,0
2018-06-15T01:04:17.614Z,0
2018-06-15T01:05:26.255Z,0
2018-06-15T01:06:34.906Z,0
2018-06-15T01:07:43.550Z,0
2018-06-15T01:08:52.201Z,0
2018-06-15T01:10:00.841Z,0
2018-06-15T01:11:09.490Z,0
2018-06-15T01:12:18.399Z,0
2018-06-15T01:13:27.049Z,0
2018-06-15T01:14:35.966Z,0
2018-06-15T01:15:44.608Z,0
2018-06-15T01:16:53.257Z,0
2018-06-15T01:18:01.901Z,0
2018-06-15T01:19:10.543Z,0
2018-06-15T01:20:19.194Z,0
2018-06-15T01:21:27.839Z,0
2018-06-15T01:22:36.482Z,0
2018-06-15T01:23:45.124Z,0
2018-06-15T01:24:53.775Z,0
2018-06-15T01:26:02.420Z,0
2018-06-15T01:27:11.332Z,0
2018-06-15T01:28:19.971Z,0
2018-06-15T01:29:28.905Z,0
2018-06-15T01:30:37.548Z,0
2018-06-15T01:31:46.463Z,0
2018-06-15T01:32:55.114Z,0
2018-06-15T01:34:03.751Z,0
2018-06-15T01:35:12.396Z,0
2018-06-15T01:36:21.042Z,0
2018-06-15T01:37:29.699Z,0
2018-06-15T01:38:38.342Z,0
2018-06-15T01:39:46.989Z,0
2018-06-15T01:40:55.634Z,0
2018-06-15T01:42:04.552Z,0
2018-06-15T01:43:13.193Z,0
2018-06-15T01:44:22.103Z,0
2018-06-15T01:45:30.746Z,0
2018-06-15T01:46:39.396Z,0
2018-06-15T01:47:48.040Z,0
2018-06-15T01:48:56.950Z,0
2018-06-15T01:50:05.857Z,0
2018-06-15T01:51:14.765Z,0
2018-06-15T01:52:23.417Z,0
2018-06-15T01:53:32.337Z,0
2018-06-15T01:54:40.984Z,0
2018-06-15T01:55:49.898Z,0
2018-06-15T01:56:58.807Z,0
2018-06-15T01:58:07.460Z,0
2018-06-15T01:59:16.103Z,0
2018-06-15T02:00:24.742Z,0
2018-06-15T02:01:33.398Z,0
2018-06-15T02:02:42.037Z,0
2018-06-15T02:03:50.687Z,0
2018-06-15T02:04:59.589Z,0
2018-06-15T02:06:08.240Z,0
2018-06-15T02:07:17.148Z,0
2018-06-15T02:08:25.795Z,0
2018-06-15T02:09:34.446Z,0
2018-06-15T02:10:43.089Z,0
2018-06-15T02:11:52.001Z,0
2018-06-15T02:13:00.647Z,0
2018-06-15T02:14:09.297Z,0
2018-06-15T02:15:17.934Z,0
2018-06-15T02:16:26.583Z,0
2018-06-15T02:17:35.228Z,0
2018-06-15T02:18:43.880Z,0
2018-06-15T02:19:52.515Z,0
2018-06-15T02:21:01.166Z,0
2018-06-15T02:22:09.811Z,0
2018-06-15T02:23:18.463Z,0
2018-06-15T02:24:27.108Z,0
2018-06-15T02:25:36.018Z,0
2018-06-15T02:26:44.659Z,0
2018-06-15T02:27:53.305Z,0
2018-06-15T02:29:01.955Z,4
2018-06-15T02:30:10.600Z,4
2018-06-15T02:31:19.510Z,4
2018-06-15T02:32:28.410Z,4
2018-06-15T02:33:37.334Z,0
2018-06-15T02:34:45.975Z,4
2018-06-15T02:35:54.894Z,4
2018-06-15T02:37:03.530Z,4
2018-06-15T02:38:12.714Z,4
2018-06-15T02:39:21.619Z,8
2018-06-15T02:40:30.271Z,4
2018-06-15T02:41:38.909Z,8
2018-06-15T02:42:47.558Z,8
2018-06-15T02:43:56.471Z,8
2018-06-15T02:45:05.388Z,12
2018-06-15T02:46:14.039Z,12
2018-06-15T02:47:22.680Z,12
2018-06-15T02:48:31.335Z,12
2018-06-15T02:49:39.981Z,16
2018-06-15T02:50:48.911Z,16
2018-06-15T02:51:57.809Z,20
2018-06-15T02:53:06.727Z,24
2018-06-15T02:54:15.637Z,24
2018-06-15T02:55:24.294Z,28
2018-06-15T02:56:33.196Z,32
2018-06-15T02:57:41.845Z,36
2018-06-15T02:58:50.524Z,36
2018-06-15T02:59:59.446Z,36
2018-06-15T03:01:08.092Z,40
2018-06-15T03:02:16.990Z,36
2018-06-15T03:03:25.784Z,32
2018-06-15T03:04:34.942Z,28
2018-06-15T03:05:44.089Z,24
2018-06-15T03:06:52.785Z,24
2018-06-15T03:08:01.432Z,24
2018-06-15T03:09:10.072Z,28
2018-06-15T03:10:18.736Z,28
2018-06-15T03:11:27.380Z,28
2018-06-15T03:12:36.025Z,28
2018-06-15T03:13:44.663Z,32
2018-06-15T03:14:53.315Z,36
2018-06-15T03:16:01.958Z,32
2018-06-15T03:17:10.870Z,36
2018-06-15T03:18:19.512Z,36
2018-06-15T03:19:28.158Z,36
2018-06-15T03:20:36.802Z,40
2018-06-15T03:21:45.450Z,36
2018-06-15T03:22:54.098Z,40
2018-06-15T03:24:02.751Z,36
2018-06-15T03:25:11.719Z,48
2018-06-15T03:26:20.727Z,56
2018-06-15T03:27:29.379Z,60
2018-06-15T03:28:38.020Z,64
2018-06-15T03:29:46.935Z,64
2018-06-15T03:30:55.585Z,72
2018-06-15T03:32:04.246Z,96
2018-06-15T03:33:13.151Z,112
2018-06-15T03:34:21.799Z,116
2018-06-15T03:35:30.439Z,116
2018-06-15T03:36:39.090Z,108
2018-06-15T03:37:47.734Z,112
2018-06-15T03:38:56.374Z,124
2018-06-15T03:40:05.019Z,148
2018-06-15T03:41:13.660Z,168
2018-06-15T03:42:22.309Z,184
2018-06-15T03:43:30.954Z,196
2018-06-15T03:44:39.600Z,220
2018-06-15T03:45:48.240Z,248
2018-06-15T03:46:56.890Z,272
2018-06-15T03:48:05.535Z,288
2018-06-15T03:49:14.502Z,292
2018-06-15T03:50:23.090Z,288
2018-06-15T03:51:31.777Z,280
2018-06-15T03:52:40.383Z,284
2018-06-15T03:53:49.030Z,276
2018-06-15T03:54:57.674Z,280
2018-06-15T03:56:06.314Z,296
2018-06-15T03:57:14.959Z,320
2018-06-15T03:58:23.607Z,336
2018-06-15T03:59:32.254Z,360
2018-06-15T04:00:40.896Z,392
2018-06-15T04:01:49.540Z,424
2018-06-15T04:02:58.185Z,436
2018-06-15T04:04:06.840Z,440
2018-06-15T04:05:15.490Z,432
2018-06-15T04:06:24.135Z,432
2018-06-15T04:07:32.828Z,424
2018-06-15T04:08:41.436Z,416
2018-06-15T04:09:50.078Z,416
2018-06-15T04:10:58.989Z,428
2018-06-15T04:12:07.909Z,500
2018-06-15T04:13:16.630Z,532
2018-06-15T04:14:25.207Z,544
2018-06-15T04:15:33.848Z,552
2018-06-15T04:16:42.756Z,568
2018-06-15T04:17:51.399Z,612
2018-06-15T04:19:00.054Z,648
2018-06-15T04:20:08.696Z,668
2018-06-15T04:21:17.351Z,644
2018-06-15T04:22:25.987Z,596
2018-06-15T04:23:34.641Z,564
2018-06-15T04:24:43.284Z,576
2018-06-15T04:25:51.935Z,624
2018-06-15T04:27:00.570Z,656
2018-06-15T04:28:09.225Z,660
2018-06-15T04:29:17.869Z,644
2018-06-15T04:30:26.518Z,640
2018-06-15T04:31:35.418Z,656
2018-06-15T04:32:44.064Z,672
2018-06-15T04:33:52.716Z,720
2018-06-15T04:35:01.363Z,792
2018-06-15T04:36:10.014Z,860
2018-06-15T04:37:18.659Z,888
2018-06-15T04:38:27.303Z,880
2018-06-15T04:39:35.943Z,852
2018-06-15T04:40:44.597Z,856
2018-06-15T04:41:53.234Z,916
2018-06-15T04:43:01.884Z,1000
2018-06-15T04:44:10.536Z,1096
2018-06-15T04:45:19.447Z,1204
2018-06-15T04:46:28.084Z,1320
2018-06-15T04:47:36.731Z,1420
2018-06-15T04:48:45.376Z,1492
2018-06-15T04:49:54.033Z,1536
2018-06-15T04:51:02.677Z,1572
2018-06-15T04:52:11.320Z,1600
2018-06-15T04:53:19.967Z,1632
2018-06-15T04:54:28.604Z,1676
2018-06-15T04:55:37.256Z,1704
2018-06-15T04:56:45.903Z,1708
2018-06-15T04:57:54.556Z,1644
2018-06-15T04:59:03.196Z,1588
2018-06-15T05:00:12.116Z,1532
2018-06-15T05:01:20.757Z,1520
2018-06-15T05:02:29.407Z,1528
2018-06-15T05:03:38.045Z,1556
2018-06-15T05:04:46.700Z,1600
2018-06-15T05:05:55.865Z,1660
2018-06-15T05:07:04.512Z,1688
2018-06-15T05:08:13.148Z,1688
2018-06-15T05:09:21.801Z,1684
2018-06-15T05:10:30.453Z,1684
2018-06-15T05:11:39.097Z,1700
2018-06-15T05:12:47.744Z,1752
2018-06-15T05:13:56.400Z,1804
2018-06-15T05:15:05.305Z,1848
2018-06-15T05:16:14.219Z,1896
2018-06-15T05:17:23.678Z,1956
2018-06-15T05:18:32.335Z,2004
2018-06-15T05:19:41.243Z,2040
2018-06-15T05:20:49.889Z,2056
2018-06-15T05:21:58.527Z,2068
2018-06-15T05:23:07.186Z,2080
2018-06-15T05:24:15.831Z,2112
2018-06-15T05:25:24.741Z,2172
2018-06-15T05:26:33.376Z,2244
2018-06-15T05:27:42.026Z,2216
2018-06-15T05:28:50.679Z,2196
2018-06-15T05:29:59.333Z,2272
2018-06-15T05:31:08.249Z,2336
2018-06-15T05:32:16.888Z,2368
2018-06-15T05:33:25.538Z,2432
2018-06-15T05:34:34.180Z,2516
2018-06-15T05:35:42.836Z,2516
2018-06-15T05:36:51.474Z,2524
2018-06-15T05:38:00.389Z,2512
2018-06-15T05:39:09.034Z,2520
2018-06-15T05:40:17.956Z,2640
2018-06-15T05:41:26.604Z,2744
2018-06-15T05:42:35.535Z,2808
2018-06-15T05:43:44.159Z,2764
2018-06-15T05:44:53.343Z,2756
2018-06-15T05:46:01.988Z,2836
2018-06-15T05:47:10.631Z,2952
2018-06-15T05:48:19.272Z,3032
2018-06-15T05:49:28.180Z,2996
2018-06-15T05:50:36.836Z,2928
2018-06-15T05:51:45.479Z,2876
2018-06-15T05:52:54.132Z,2856
2018-06-15T05:54:03.033Z,2796
2018-06-15T05:55:11.690Z,2780
2018-06-15T05:56:20.329Z,2808
2018-06-15T05:57:28.979Z,2880
2018-06-15T05:58:37.878Z,2948
2018-06-15T05:59:46.534Z,2976
2018-06-15T06:00:55.177Z,3028
2018-06-15T06:02:03.828Z,3052
2018-06-15T06:03:12.992Z,3100
2018-06-15T06:04:21.648Z,3112
2018-06-15T06:05:30.300Z,3092
2018-06-15T06:06:39.212Z,3052
2018-06-15T06:07:47.861Z,3120
2018-06-15T06:08:56.502Z,3228
2018-06-15T06:10:05.152Z,3312
2018-06-15T06:11:13.800Z,3412
2018-06-15T06:12:22.451Z,3500
2018-06-15T06:13:31.095Z,3592
2018-06-15T06:14:39.742Z,3644
2018-06-15T06:15:48.390Z,3772
2018-06-15T06:16:57.042Z,3848
2018-06-15T06:18:05.686Z,4140
2018-06-15T06:19:14.336Z,4412
2018-06-15T06:20:22.981Z,4996
2018-06-15T06:21:31.633Z,5204
2018-06-15T06:22:40.279Z,5280
2018-06-15T06:23:49.186Z,5504
2018-06-15T06:24:58.097Z,5844
2018-06-15T06:26:07.008Z,6312
2018-06-15T06:27:15.658Z,6688
2018-06-15T06:28:24.306Z,6752
2018-06-15T06:29:32.956Z,6684
2018-06-15T06:30:41.597Z,6268
2018-06-15T06:31:50.249Z,5508
2018-06-15T06:32:58.895Z,4644
2018-06-15T06:34:07.541Z,4080
2018-06-15T06:35:16.185Z,3608
2018-06-15T06:36:24.840Z,3408
2018-06-15T06:37:33.484Z,3276
2018-06-15T06:38:42.403Z,3124
2018-06-15T06:39:51.047Z,3084
2018-06-15T06:40:59.697Z,3048
2018-06-15T06:42:08.346Z,3368
2018-06-15T06:43:17.275Z,3876
2018-06-15T06:44:25.919Z,3940
2018-06-15T06:45:34.562Z,3888
2018-06-15T06:46:43.212Z,3756
2018-06-15T06:47:51.859Z,3680
2018-06-15T06:49:00.511Z,3480
2018-06-15T06:50:09.153Z,3332
2018-06-15T06:51:17.803Z,3388
2018-06-15T06:52:26.713Z,3272
2018-06-15T06:53:35.627Z,3256
2018-06-15T06:54:44.268Z,3016
2018-06-15T06:55:53.188Z,3020
2018-06-15T06:57:02.094Z,3108
2018-06-15T06:58:10.752Z,3188
2018-06-15T06:59:19.398Z,3364
2018-06-15T07:00:28.048Z,3664
2018-06-15T07:01:36.959Z,3856
2018-06-15T07:03:54.517Z,4316
2018-06-15T07:05:03.441Z,4680
2018-06-15T07:06:12.116Z,4428
2018-06-15T07:07:20.733Z,4516
2018-06-15T07:08:29.381Z,4764
2018-06-15T07:09:38.294Z,4708
2018-06-15T07:10:46.934Z,4664
2018-06-15T07:11:55.589Z,4748
2018-06-15T07:13:04.228Z,4836
2018-06-15T07:14:13.145Z,4668
2018-06-15T07:15:21.790Z,4720
2018-06-15T07:16:30.447Z,4588
2018-06-15T07:17:39.363Z,4456
2018-06-15T07:18:48.001Z,4624
2018-06-15T07:19:56.650Z,4856
2018-06-15T07:21:05.297Z,4964
2018-06-15T07:22:13.953Z,4788
2018-06-15T07:23:22.862Z,5100
2018-06-15T07:24:31.520Z,5280
2018-06-15T07:25:40.160Z,5240
2018-06-15T07:26:48.816Z,5368
2018-06-15T07:27:57.462Z,5504
2018-06-15T07:29:06.378Z,5492
2018-06-15T07:30:15.277Z,5712
2018-06-15T07:31:23.936Z,5840
2018-06-15T07:32:32.583Z,5656
2018-06-15T07:33:41.235Z,5748
2018-06-15T07:34:49.876Z,6092
2018-06-15T07:35:58.527Z,6196
2018-06-15T07:37:07.182Z,6252
2018-06-15T07:38:15.835Z,6296
2018-06-15T07:39:24.749Z,6184
2018-06-15T07:40:33.387Z,5980
2018-06-15T07:41:42.041Z,5812
2018-06-15T07:42:50.686Z,5812
2018-06-15T07:43:59.342Z,5844
2018-06-15T07:45:07.983Z,5804
2018-06-15T07:46:16.638Z,5864
2018-06-15T07:47:25.282Z,5864
2018-06-15T07:48:33.941Z,5812
2018-06-15T07:49:42.581Z,5816
2018-06-15T07:50:51.231Z,5884
2018-06-15T07:51:59.879Z,5892
2018-06-15T07:53:08.543Z,5856
2018-06-15T07:54:17.189Z,5764
2018-06-15T07:55:25.832Z,5732
2018-06-15T07:56:34.746Z,5844
2018-06-15T07:57:43.395Z,5900
2018-06-15T07:58:52.317Z,5840
2018-06-15T08:00:00.962Z,5700
2018-06-15T08:01:09.616Z,5592
2018-06-15T08:02:18.790Z,5636
2018-06-15T08:03:27.452Z,5864
2018-06-15T08:04:36.093Z,6028
2018-06-15T08:05:44.748Z,5948
2018-06-15T08:06:53.390Z,6792
2018-06-15T08:08:02.044Z,6924
2018-06-15T08:09:10.691Z,6804
2018-06-15T08:10:19.345Z,6904
2018-06-15T08:11:27.992Z,7104
2018-06-15T08:12:36.643Z,7332
2018-06-15T08:13:45.294Z,7516
2018-06-15T08:14:53.946Z,7448
2018-06-15T08:16:02.599Z,7112
2018-06-15T08:17:11.245Z,7172
2018-06-15T08:18:19.895Z,7332
2018-06-15T08:19:28.544Z,7944
2018-06-15T08:20:37.463Z,7604
2018-06-15T08:21:46.110Z,7652
2018-06-15T08:22:54.760Z,7708
2018-06-15T08:24:03.408Z,7572
2018-06-15T08:25:12.063Z,7120
2018-06-15T08:26:20.972Z,6524
2018-06-15T08:27:29.623Z,6216
2018-06-15T08:28:38.272Z,6100
2018-06-15T08:29:47.192Z,5712
2018-06-15T08:30:55.837Z,5536
2018-06-15T08:32:04.488Z,5628
2018-06-15T08:33:13.403Z,5636
2018-06-15T08:34:22.050Z,5612
2018-06-15T08:35:30.704Z,5468
2018-06-15T08:36:39.366Z,5256
2018-06-15T08:37:48.021Z,5064
2018-06-15T08:38:56.681Z,4944
2018-06-15T08:40:05.466Z,5144
2018-06-15T08:41:14.157Z,5308
2018-06-15T08:42:22.841Z,5220
2018-06-15T08:43:31.456Z,5232
2018-06-15T08:44:40.110Z,5100
2018-06-15T08:45:48.760Z,5176
2018-06-15T08:46:57.412Z,5456
2018-06-15T08:48:06.058Z,5536
2018-06-15T08:49:14.710Z,5488
2018-06-15T08:50:23.359Z,5440
2018-06-15T08:51:32.020Z,5480
2018-06-15T08:52:40.691Z,5252
2018-06-15T08:53:49.317Z,5308
2018-06-15T08:54:57.966Z,5204
2018-06-15T08:56:06.618Z,5076
2018-06-15T08:57:15.274Z,4996
2018-06-15T08:58:23.920Z,4996
2018-06-15T08:59:32.572Z,5068
2018-06-15T09:00:41.222Z,5200
2018-06-15T09:01:49.887Z,5448
2018-06-15T09:02:58.786Z,5260
2018-06-15T09:04:07.439Z,4780
2018-06-15T09:05:16.092Z,4628
2018-06-15T09:06:25.003Z,5184
2018-06-15T09:07:33.657Z,4264
2018-06-15T09:08:42.310Z,4172
2018-06-15T09:09:50.963Z,5068
2018-06-15T09:10:59.617Z,4372
2018-06-15T09:12:08.542Z,4932
2018-06-15T09:13:17.190Z,5432
2018-06-15T09:14:26.110Z,5912
2018-06-15T09:15:34.763Z,5944
2018-06-15T09:16:43.410Z,5992
2018-06-15T09:17:52.061Z,5952
2018-06-15T09:19:00.714Z,5980
2018-06-15T09:20:09.370Z,5908
2018-06-15T09:21:18.016Z,5864
2018-06-15T09:22:26.667Z,5664
2018-06-15T09:23:35.316Z,5380
2018-06-15T09:24:43.971Z,5184
2018-06-15T09:25:52.619Z,5104
2018-06-15T09:27:01.270Z,4988
2018-06-15T09:28:09.920Z,5320
2018-06-15T09:29:18.567Z,5424
2018-06-15T09:30:27.226Z,5688
2018-06-15T09:31:35.878Z,5852
2018-06-15T09:32:44.597Z,6300
2018-06-15T09:33:53.178Z,6388
2018-06-15T09:35:01.834Z,6012
2018-06-15T09:36:10.484Z,5292
2018-06-15T09:37:19.134Z,5612
2018-06-15T09:38:27.780Z,5412
2018-06-15T09:39:36.436Z,5300
2018-06-15T09:40:45.085Z,5172
2018-06-15T09:41:53.739Z,5656
2018-06-15T09:43:02.384Z,4764
2018-06-15T09:44:11.037Z,5020
2018-06-15T09:45:19.690Z,4848
2018-06-15T09:46:28.347Z,5100
2018-06-15T09:47:36.995Z,5880
2018-06-15T09:48:45.641Z,6380
2018-06-15T09:49:54.554Z,6364
2018-06-15T09:51:03.205Z,5996
2018-06-15T09:52:12.123Z,5820
2018-06-15T09:53:20.778Z,5524
2018-06-15T09:54:29.430Z,5328
2018-06-15T09:55:38.081Z,6048
2018-06-15T09:56:47.001Z,5960
2018-06-15T09:57:55.645Z,5944
2018-06-15T09:59:04.563Z,5944
2018-06-15T10:00:13.212Z,5576
2018-06-15T10:01:21.873Z,5896
2018-06-15T10:02:30.523Z,6244
2018-06-15T10:03:39.176Z,6096
2018-06-15T10:04:47.822Z,5984
2018-06-15T10:05:56.473Z,5752
2018-06-15T10:07:05.133Z,5748
2018-06-15T10:08:13.781Z,5144
2018-06-15T10:09:22.436Z,4828
2018-06-15T10:10:31.078Z,4884
2018-06-15T10:11:39.736Z,5268
2018-06-15T10:12:48.382Z,6512
2018-06-15T10:13:57.046Z,6912
2018-06-15T10:15:05.957Z,7016
2018-06-15T10:16:14.618Z,6520
2018-06-15T10:17:23.527Z,6440
2018-06-15T10:18:32.448Z,7172
2018-06-15T10:19:41.091Z,7396
2018-06-15T10:20:49.745Z,7480
2018-06-15T10:21:58.400Z,7364
2018-06-15T10:23:07.054Z,6712
2018-06-15T10:24:15.712Z,7424
2018-06-15T10:25:24.352Z,7600
2018-06-15T10:26:33.013Z,7892
2018-06-15T10:27:41.662Z,7936
2018-06-15T10:28:50.582Z,7672
2018-06-15T10:29:59.227Z,7480
2018-06-15T10:31:07.883Z,7280
2018-06-15T10:32:16.534Z,7080
2018-06-15T10:33:25.196Z,6812
2018-06-15T10:34:34.097Z,6820
2018-06-15T10:35:42.750Z,6760
2018-06-15T10:36:51.665Z,6512
2018-06-15T10:38:00.327Z,6408
2018-06-15T10:39:08.978Z,6312
2018-06-15T10:40:17.627Z,6192
2018-06-15T10:41:26.279Z,6088
2018-06-15T10:42:34.931Z,6040
2018-06-15T10:43:43.855Z,5920
2018-06-15T10:44:52.504Z,5872
2018-06-15T10:46:01.161Z,5852
2018-06-15T10:47:09.826Z,5876
2018-06-15T10:48:18.495Z,5820
2018-06-15T10:49:27.142Z,5724
2018-06-15T10:50:35.798Z,5648
2018-06-15T10:51:44.443Z,5772
2018-06-15T10:52:53.103Z,5880
2018-06-15T10:54:02.011Z,5960
2018-06-15T10:55:10.671Z,6124
2018-06-15T10:56:19.333Z,6236
2018-06-15T10:57:27.967Z,6184
2018-06-15T10:58:36.625Z,6088
2018-06-15T10:59:45.283Z,6072
2018-06-15T11:00:53.938Z,6076
2018-06-15T11:02:02.584Z,6324
2018-06-15T11:03:11.498Z,6476
2018-06-15T11:04:20.151Z,6416
2018-06-15T11:05:28.808Z,6252
2018-06-15T11:06:37.718Z,6180
2018-06-15T11:07:49.038Z,4884
2018-06-15T11:08:57.960Z,4944
2018-06-15T11:10:06.900Z,5996
2018-06-15T11:11:15.546Z,6460
2018-06-15T11:12:24.198Z,6516
2018-06-15T11:13:32.853Z,6392
2018-06-15T11:14:41.512Z,6596
2018-06-15T11:15:50.426Z,6816
2018-06-15T11:16:59.079Z,7036
2018-06-15T11:18:07.730Z,7060
2018-06-15T11:19:16.380Z,6916
2018-06-15T11:20:25.039Z,6676
2018-06-15T11:21:33.692Z,6392
2018-06-15T11:22:42.343Z,5864
2018-06-15T11:23:50.989Z,4296
2018-06-15T11:24:59.647Z,4016
2018-06-15T11:26:08.305Z,3920
2018-06-15T11:27:16.957Z,3820
2018-06-15T11:28:25.866Z,3724
2018-06-15T11:29:34.521Z,3644
2018-06-15T11:30:43.178Z,3656
2018-06-15T11:31:51.834Z,3708
2018-06-15T11:33:00.482Z,3776
2018-06-15T11:34:09.137Z,4592
2018-06-15T11:35:17.792Z,5256
2018-06-15T11:36:26.442Z,5204
2018-06-15T11:37:35.096Z,5212
2018-06-15T11:38:43.753Z,5368
2018-06-15T11:39:52.681Z,5404
2018-06-15T11:41:01.375Z,4128
2018-06-15T11:42:09.981Z,4004
2018-06-15T11:43:18.628Z,3880
2018-06-15T11:44:27.281Z,3796
2018-06-15T11:45:35.939Z,3752
2018-06-15T11:46:44.596Z,3836
2018-06-15T11:47:53.242Z,4012
2018-06-15T11:49:01.897Z,5280
2018-06-15T11:50:10.548Z,5476
2018-06-15T11:51:19.204Z,5808
2018-06-15T11:52:27.856Z,5980
2018-06-15T11:53:36.508Z,6068
2018-06-15T11:54:45.160Z,6092
2018-06-15T11:55:53.810Z,6064
2018-06-15T11:57:02.998Z,5976
2018-06-15T11:58:11.652Z,5980
2018-06-15T11:59:20.305Z,6036
2018-06-15T12:00:28.954Z,6024
2018-06-15T12:01:37.614Z,4492
2018-06-15T12:02:46.265Z,4204
2018-06-15T12:03:54.926Z,4008
2018-06-15T12:05:03.571Z,3944
2018-06-15T12:06:12.235Z,3904
2018-06-15T12:07:21.151Z,3836
2018-06-15T12:08:29.810Z,3692
2018-06-15T12:09:38.452Z,3596
2018-06-15T12:10:47.108Z,3540
2018-06-15T12:11:55.765Z,3540
2018-06-15T12:13:04.418Z,3548
2018-06-15T12:14:13.071Z,3760
2018-06-15T12:15:21.721Z,5300
2018-06-15T12:16:30.375Z,5708
2018-06-15T12:17:39.024Z,6140
2018-06-15T12:18:47.689Z,6412
2018-06-15T12:19:56.333Z,6600
2018-06-15T12:21:04.994Z,6876
2018-06-15T12:22:13.902Z,6016
2018-06-15T12:23:22.564Z,6472
2018-06-15T12:24:31.473Z,5788
2018-06-15T12:25:40.130Z,5836
2018-06-15T12:26:48.784Z,5720
2018-06-15T12:27:57.448Z,5408
2018-06-15T12:29:06.100Z,5320
2018-06-15T12:30:15.023Z,3904
2018-06-15T12:31:23.670Z,4648
2018-06-15T12:32:32.594Z,3768
2018-06-15T12:33:41.251Z,3512
2018-06-15T12:34:49.903Z,3216
2018-06-15T12:35:58.827Z,2960
2018-06-15T12:37:07.472Z,3004
2018-06-15T12:38:16.132Z,4380
2018-06-15T12:39:25.134Z,4604
2018-06-15T12:40:33.791Z,4724
2018-06-15T12:41:42.435Z,4812
2018-06-15T12:42:51.098Z,3568
2018-06-15T12:43:59.749Z,3464
2018-06-15T12:45:08.405Z,4444
2018-06-15T12:46:17.047Z,3184
2018-06-15T12:47:25.706Z,3052
2018-06-15T12:48:34.368Z,3044
2018-06-15T12:49:43.020Z,3136
2018-06-15T12:50:51.674Z,4432
2018-06-15T12:52:00.315Z,4764
2018-06-15T12:53:08.972Z,4792
2018-06-15T12:54:17.619Z,4480
2018-06-15T12:55:26.286Z,5156
2018-06-15T12:56:35.200Z,5044
2018-06-15T12:57:43.866Z,5020
2018-06-15T12:58:52.514Z,4892
2018-06-15T13:00:01.163Z,4488
2018-06-15T13:01:09.826Z,3460
2018-06-15T13:02:18.745Z,3320
2018-06-15T13:03:27.400Z,3344
2018-06-15T13:04:36.045Z,3440
2018-06-15T13:05:44.699Z,3588
2018-06-15T13:06:53.357Z,3828
2018-06-15T13:08:02.046Z,3940
2018-06-15T13:09:11.587Z,4008
2018-06-15T13:10:20.229Z,4472
2018-06-15T13:11:29.152Z,5336
2018-06-15T13:12:37.800Z,5264
2018-06-15T13:13:46.462Z,4344
2018-06-15T13:14:55.108Z,5640
2018-06-15T13:16:04.031Z,4896
2018-06-15T13:17:12.681Z,6020
2018-06-15T13:18:21.345Z,6168
2018-06-15T13:19:30.252Z,6360
2018-06-15T13:20:38.907Z,6776
2018-06-15T13:21:47.559Z,7096
2018-06-15T13:22:56.226Z,7296
2018-06-15T13:24:04.871Z,7188
2018-06-15T13:25:13.519Z,6916
2018-06-15T13:26:22.164Z,6796
2018-06-15T13:27:30.820Z,6236
2018-06-15T13:28:39.744Z,5064
2018-06-15T13:29:48.394Z,5216
2018-06-15T13:30:57.052Z,6088
2018-06-15T13:32:05.960Z,6092
2018-06-15T13:33:14.621Z,6100
2018-06-15T13:34:23.270Z,4784
2018-06-15T13:35:32.195Z,4464
2018-06-15T13:36:40.841Z,4320
2018-06-15T13:37:49.499Z,5600
2018-06-15T13:38:58.151Z,5632
2018-06-15T13:40:07.075Z,5520
2018-06-15T13:41:15.720Z,5812
2018-06-15T13:42:24.375Z,5696
2018-06-15T13:43:33.036Z,5720
2018-06-15T13:44:41.695Z,5804
2018-06-15T13:45:50.353Z,5992
2018-06-15T13:46:58.998Z,6120
2018-06-15T13:48:07.654Z,6140
2018-06-15T13:49:16.302Z,6144
2018-06-15T13:50:24.963Z,6280
2018-06-15T13:51:33.609Z,6248
2018-06-15T13:52:42.273Z,6120
2018-06-15T13:53:50.922Z,5888
2018-06-15T13:54:59.849Z,5820
2018-06-15T13:56:08.492Z,5728
2018-06-15T13:57:17.156Z,5788
2018-06-15T13:58:26.073Z,5888
2018-06-15T13:59:34.733Z,6044
2018-06-15T14:00:43.385Z,6020
2018-06-15T14:01:52.300Z,6140
2018-06-15T14:03:00.954Z,6148
2018-06-15T14:04:09.604Z,6020
2018-06-15T14:05:18.262Z,5876
2018-06-15T14:06:26.917Z,5532
2018-06-15T14:07:35.570Z,5288
2018-06-15T14:08:44.221Z,5144
2018-06-15T14:09:52.882Z,5356
2018-06-15T14:11:01.536Z,5340
2018-06-15T14:12:10.195Z,5236
2018-06-15T14:13:19.105Z,5396
2018-06-15T14:14:27.768Z,5432
2018-06-15T14:15:36.679Z,5276
2018-06-15T14:16:45.339Z,5096
2018-06-15T14:17:53.985Z,4972
2018-06-15T14:19:02.640Z,4976
2018-06-15T14:20:11.292Z,4896
2018-06-15T14:21:19.950Z,4864
2018-06-15T14:22:28.610Z,4668
2018-06-15T14:23:37.258Z,4800
2018-06-15T14:24:45.911Z,4908
2018-06-15T14:25:54.564Z,4944
2018-06-15T14:27:03.228Z,4880
2018-06-15T14:28:12.405Z,4740
2018-06-15T14:29:21.060Z,4660
2018-06-15T14:30:29.714Z,4720
2018-06-15T14:31:38.376Z,4728
2018-06-15T14:32:47.343Z,4748
2018-06-15T14:33:56.224Z,4732
2018-06-15T14:35:05.136Z,4612
2018-06-15T14:36:13.796Z,4472
2018-06-15T14:37:22.444Z,3656
2018-06-15T14:38:31.102Z,3588
2018-06-15T14:39:39.749Z,4392
2018-06-15T14:40:48.400Z,4348
2018-06-15T14:41:57.059Z,4348
2018-06-15T14:43:05.712Z,4592
2018-06-15T14:44:14.632Z,4708
2018-06-15T14:45:23.279Z,4784
2018-06-15T14:46:31.938Z,4876
2018-06-15T14:47:40.593Z,4952
2018-06-15T14:48:49.248Z,4972
2018-06-15T14:49:57.896Z,4944
2018-06-15T14:51:06.579Z,4920
2018-06-15T14:52:15.237Z,4864
2018-06-15T14:53:23.890Z,4712
2018-06-15T14:54:32.538Z,4568
2018-06-15T14:55:41.464Z,4420
2018-06-15T14:56:50.191Z,4308
2018-06-15T14:57:58.772Z,4348
2018-06-15T14:59:07.427Z,4416
2018-06-15T15:00:16.077Z,4388
2018-06-15T15:01:24.729Z,4396
2018-06-15T15:02:33.377Z,4400
2018-06-15T15:03:42.038Z,4452
2018-06-15T15:04:50.709Z,4340
2018-06-15T15:05:59.341Z,4292
2018-06-15T15:07:07.995Z,4180
2018-06-15T15:08:16.673Z,4268
2018-06-15T15:09:25.587Z,4252
2018-06-15T15:10:34.510Z,4192
2018-06-15T15:11:43.161Z,4140
2018-06-15T15:12:51.820Z,4044
2018-06-15T15:14:00.470Z,3940
2018-06-15T15:15:09.121Z,3876
2018-06-15T15:16:17.778Z,3772
2018-06-15T15:17:26.428Z,3660
2018-06-15T15:18:35.351Z,3728
2018-06-15T15:19:44.543Z,3636
2018-06-15T15:20:53.202Z,3652
2018-06-15T15:22:02.117Z,3652
2018-06-15T15:23:11.594Z,3556
2018-06-15T15:24:20.248Z,3532
2018-06-15T15:25:28.901Z,3464
2018-06-15T15:26:37.552Z,3440
2018-06-15T15:27:46.211Z,3416
2018-06-15T15:28:54.865Z,3384
2018-06-15T15:30:03.850Z,3376
2018-06-15T15:31:12.431Z,3380
2018-06-15T15:32:21.089Z,3352
2018-06-15T15:33:30.004Z,3340
2018-06-15T15:34:38.661Z,3312
2018-06-15T15:35:47.576Z,3272
2018-06-15T15:36:56.230Z,3288